Terminal Aerodrome Forecast
Issued by NWS Shreveport, LA

Home | Current Version | Previous Version | Text Only | Print | Product List | Glossary On
Versions: 1 2 3 4 5 6 7 8 9 10 11 12 13 14 15 16 17
619
FTUS44 KSHV 210952 AAB
TAFMLU
TAF AMD
KMLU 210952Z 2110/2206 00000KT 4SM BR SCT250
      TEMPO 2110/2113 3/4SM BR
     FM211400 VRB03KT P6SM FEW030 SCT250
     FM211700 12004KT P6SM SCT045 SCT250
     FM212100 12005KT P6SM SCT060=

USA.gov is the U.S. government's official web portal to all federal, state and local government web resources and services.